sensor_id;sensor_type;location;lat;lon;timestamp;temperature;humidity
21801;DHT22;11062;51.164;16.924;2022-11-13T00:16:45;33.40;34.70
21801;DHT22;11062;51.164;16.924;2022-11-13T00:19:11;33.40;34.80
21801;DHT22;11062;51.164;16.924;2022-11-13T00:21:39;33.50;34.70
21801;DHT22;11062;51.164;16.924;2022-11-13T00:24:06;33.50;34.60
21801;DHT22;11062;51.164;16.924;2022-11-13T00:26:32;33.60;34.70
21801;DHT22;11062;51.164;16.924;2022-11-13T00:29:03;33.60;34.70
21801;DHT22;11062;51.164;16.924;2022-11-13T00:31:29;33.60;34.70
21801;DHT22;11062;51.164;16.924;2022-11-13T00:33:57;33.60;34.60
21801;DHT22;11062;51.164;16.924;2022-11-13T00:36:27;33.60;34.60
21801;DHT22;11062;51.164;16.924;2022-11-13T00:38:54;33.60;34.60
21801;DHT22;11062;51.164;16.924;2022-11-13T00:41:23;33.70;34.60
21801;DHT22;11062;51.164;16.924;2022-11-13T00:43:49;33.70;34.50
21801;DHT22;11062;51.164;16.924;2022-11-13T00:46:15;33.70;34.40
21801;DHT22;11062;51.164;16.924;2022-11-13T00:48:41;33.70;34.30
21801;DHT22;11062;51.164;16.924;2022-11-13T00:51:07;33.60;34.30
21801;DHT22;11062;51.164;16.924;2022-11-13T00:53:35;33.60;34.30
21801;DHT22;11062;51.164;16.924;2022-11-13T00:56:01;33.70;34.30
21801;DHT22;11062;51.164;16.924;2022-11-13T00:58:36;33.70;34.30
21801;DHT22;11062;51.164;16.924;2022-11-13T01:01:07;33.70;34.20
21801;DHT22;11062;51.164;16.924;2022-11-13T01:03:39;33.60;34.10
21801;DHT22;11062;51.164;16.924;2022-11-13T01:08:35;33.50;34.10
21801;DHT22;11062;51.164;16.924;2022-11-13T01:11:07;33.40;34.20
21801;DHT22;11062;51.164;16.924;2022-11-13T01:13:38;33.50;34.10
21801;DHT22;11062;51.164;16.924;2022-11-13T01:16:06;33.50;34.30
21801;DHT22;11062;51.164;16.924;2022-11-13T01:18:33;33.50;34.20
21801;DHT22;11062;51.164;16.924;2022-11-13T01:21:17;33.40;34.10
21801;DHT22;11062;51.164;16.924;2022-11-13T01:23:50;33.50;34.10
21801;DHT22;11062;51.164;16.924;2022-11-13T04:02:32;33.40;33.10
21801;DHT22;11062;51.164;16.924;2022-11-13T04:05:13;33.40;33.20
21801;DHT22;11062;51.164;16.924;2022-11-13T04:07:43;33.50;33.20
21801;DHT22;11062;51.164;16.924;2022-11-13T04:10:09;33.40;33.00
21801;DHT22;11062;51.164;16.924;2022-11-13T04:13:00;33.40;33.00
21801;DHT22;11062;51.164;16.924;2022-11-13T04:15:47;33.40;33.10
21801;DHT22;11062;51.164;16.924;2022-11-13T04:18:35;33.40;33.00
21801;DHT22;11062;51.164;16.924;2022-11-13T04:31:09;33.10;33.00
21801;DHT22;11062;51.164;16.924;2022-11-13T04:33:35;33.10;33.10
21801;DHT22;11062;51.164;16.924;2022-11-13T04:36:01;33.10;33.00
21801;DHT22;11062;51.164;16.924;2022-11-13T04:38:27;33.10;33.00
21801;DHT22;11062;51.164;16.924;2022-11-13T04:40:53;33.10;32.90
21801;DHT22;11062;51.164;16.924;2022-11-13T04:43:39;33.20;33.10
21801;DHT22;11062;51.164;16.924;2022-11-13T04:46:04;33.20;33.10
21801;DHT22;11062;51.164;16.924;2022-11-13T04:48:33;33.20;33.00
21801;DHT22;11062;51.164;16.924;2022-11-13T04:50:59;33.20;33.00
21801;DHT22;11062;51.164;16.924;2022-11-13T04:53:25;33.20;32.90
21801;DHT22;11062;51.164;16.924;2022-11-13T04:55:52;33.20;32.80
21801;DHT22;11062;51.164;16.924;2022-11-13T04:58:20;33.30;32.90
21801;DHT22;11062;51.164;16.924;2022-11-13T05:00:46;33.30;32.90
21801;DHT22;11062;51.164;16.924;2022-11-13T05:03:13;33.30;32.90
21801;DHT22;11062;51.164;16.924;2022-11-13T05:05:41;33.30;33.50
21801;DHT22;11062;51.164;16.924;2022-11-13T05:08:10;33.30;32.90
21801;DHT22;11062;51.164;16.924;2022-11-13T05:10:37;33.30;32.90
21801;DHT22;11062;51.164;16.924;2022-11-13T05:13:06;33.30;32.80
21801;DHT22;11062;51.164;16.924;2022-11-13T05:15:34;33.30;32.80
21801;DHT22;11062;51.164;16.924;2022-11-13T05:18:00;33.30;32.90
21801;DHT22;11062;51.164;16.924;2022-11-13T05:20:26;33.30;32.90
21801;DHT22;11062;51.164;16.924;2022-11-13T05:22:55;33.30;32.90
21801;DHT22;11062;51.164;16.924;2022-11-13T05:25:21;33.30;32.90
21801;DHT22;11062;51.164;16.924;2022-11-13T05:27:47;33.30;32.90
21801;DHT22;11062;51.164;16.924;2022-11-13T05:30:13;33.30;33.00
21801;DHT22;11062;51.164;16.924;2022-11-13T05:32:39;33.30;33.00
21801;DHT22;11062;51.164;16.924;2022-11-13T05:35:08;33.30;33.00
21801;DHT22;11062;51.164;16.924;2022-11-13T05:37:34;33.30;33.00
21801;DHT22;11062;51.164;16.924;2022-11-13T05:40:00;33.30;33.00
21801;DHT22;11062;51.164;16.924;2022-11-13T05:42:31;33.30;33.10
21801;DHT22;11062;51.164;16.924;2022-11-13T05:44:57;33.20;32.80
21801;DHT22;11062;51.164;16.924;2022-11-13T05:47:23;33.10;33.00
21801;DHT22;11062;51.164;16.924;2022-11-13T05:49:49;33.10;33.00
21801;DHT22;11062;51.164;16.924;2022-11-13T05:52:15;33.10;33.00
21801;DHT22;11062;51.164;16.924;2022-11-13T05:54:41;33.10;33.00
21801;DHT22;11062;51.164;16.924;2022-11-13T05:57:12;33.10;33.00
21801;DHT22;11062;51.164;16.924;2022-11-13T05:59:38;33.00;33.10
21801;DHT22;11062;51.164;16.924;2022-11-13T06:02:04;33.00;33.20
21801;DHT22;11062;51.164;16.924;2022-11-13T10:22:29;33.70;33.00
21801;DHT22;11062;51.164;16.924;2022-11-13T10:25:13;33.60;32.90
21801;DHT22;11062;51.164;16.924;2022-11-13T10:27:41;33.40;33.00
21801;DHT22;11062;51.164;16.924;2022-11-13T10:30:17;33.30;33.10
21801;DHT22;11062;51.164;16.924;2022-11-13T10:32:45;33.30;33.40
21801;DHT22;11062;51.164;16.924;2022-11-13T10:38:31;33.60;33.50
21801;DHT22;11062;51.164;16.924;2022-11-13T10:41:14;33.60;33.20
21801;DHT22;11062;51.164;16.924;2022-11-13T10:46:21;33.40;33.30
21801;DHT22;11062;51.164;16.924;2022-11-13T14:52:56;33.20;33.20
21801;DHT22;11062;51.164;16.924;2022-11-13T14:55:26;33.20;33.10
21801;DHT22;11062;51.164;16.924;2022-11-13T14:57:52;33.30;33.30
21801;DHT22;11062;51.164;16.924;2022-11-13T15:00:37;33.20;33.10
21801;DHT22;11062;51.164;16.924;2022-11-13T15:03:06;33.40;33.10
21801;DHT22;11062;51.164;16.924;2022-11-13T15:05:32;33.30;33.00
21801;DHT22;11062;51.164;16.924;2022-11-13T15:07:58;33.30;32.90
21801;DHT22;11062;51.164;16.924;2022-11-13T15:10:28;33.30;33.10
21801;DHT22;11062;51.164;16.924;2022-11-13T15:12:55;33.20;32.90
21801;DHT22;11062;51.164;16.924;2022-11-13T15:15:28;33.20;32.90
21801;DHT22;11062;51.164;16.924;2022-11-13T15:17:57;33.30;33.00
21801;DHT22;11062;51.164;16.924;2022-11-13T15:20:27;33.20;33.00
21801;DHT22;11062;51.164;16.924;2022-11-13T15:22:57;33.30;32.90
21801;DHT22;11062;51.164;16.924;2022-11-13T15:25:28;33.30;32.80
21801;DHT22;11062;51.164;16.924;2022-11-13T15:27:55;33.20;32.80
21801;DHT22;11062;51.164;16.924;2022-11-13T15:30:21;33.20;32.80
21801;DHT22;11062;51.164;16.924;2022-11-13T15:32:47;33.20;32.80
21801;DHT22;11062;51.164;16.924;2022-11-13T15:38:29;33.20;32.70
21801;DHT22;11062;51.164;16.924;2022-11-13T15:44:34;33.10;32.60
21801;DHT22;11062;51.164;16.924;2022-11-13T21:31:34;30.00;31.40
21801;DHT22;11062;51.164;16.924;2022-11-13T21:34:03;30.10;31.20
21801;DHT22;11062;51.164;16.924;2022-11-13T21:36:28;30.10;31.80
21801;DHT22;11062;51.164;16.924;2022-11-13T21:38:57;30.10;31.80
21801;DHT22;11062;51.164;16.924;2022-11-13T21:41:23;30.10;31.80
21801;DHT22;11062;51.164;16.924;2022-11-13T21:44:01;30.20;31.80
21801;DHT22;11062;51.164;16.924;2022-11-13T21:46:43;30.30;31.50
21801;DHT22;11062;51.164;16.924;2022-11-13T21:49:11;30.30;31.90
21801;DHT22;11062;51.164;16.924;2022-11-13T21:51:40;30.30;33.00
21801;DHT22;11062;51.164;16.924;2022-11-13T21:54:06;30.30;32.40
21801;DHT22;11062;51.164;16.924;2022-11-13T21:56:36;30.30;32.60
21801;DHT22;11062;51.164;16.924;2022-11-13T21:59:03;30.50;33.40
21801;DHT22;11062;51.164;16.924;2022-11-13T22:01:30;30.50;32.90
21801;DHT22;11062;51.164;16.924;2022-11-13T22:04:00;30.50;32.90
21801;DHT22;11062;51.164;16.924;2022-11-13T22:06:31;30.50;33.00
21801;DHT22;11062;51.164;16.924;2022-11-13T22:09:18;30.70;33.10
21801;DHT22;11062;51.164;16.924;2022-11-13T22:11:45;30.70;33.10
21801;DHT22;11062;51.164;16.924;2022-11-13T22:14:11;30.70;33.20
21801;DHT22;11062;51.164;16.924;2022-11-13T22:16:40;30.80;33.20
21801;DHT22;11062;51.164;16.924;2022-11-13T22:19:10;30.80;33.10
21801;DHT22;11062;51.164;16.924;2022-11-13T22:21:37;30.90;33.10
21801;DHT22;11062;51.164;16.924;2022-11-13T22:24:03;30.90;33.20
21801;DHT22;11062;51.164;16.924;2022-11-13T22:26:29;31.00;33.10
21801;DHT22;11062;51.164;16.924;2022-11-13T22:28:58;31.00;33.00
21801;DHT22;11062;51.164;16.924;2022-11-13T22:31:27;31.00;32.90
21801;DHT22;11062;51.164;16.924;2022-11-13T22:33:54;31.00;32.90
21801;DHT22;11062;51.164;16.924;2022-11-13T22:36:25;31.00;32.80
21801;DHT22;11062;51.164;16.924;2022-11-13T22:38:56;31.10;32.80
21801;DHT22;11062;51.164;16.924;2022-11-13T22:41:27;31.10;32.60
21801;DHT22;11062;51.164;16.924;2022-11-13T22:43:57;31.10;32.50
21801;DHT22;11062;51.164;16.924;2022-11-13T22:46:26;31.10;32.60
21801;DHT22;11062;51.164;16.924;2022-11-13T22:48:53;31.10;32.50
21801;DHT22;11062;51.164;16.924;2022-11-13T22:51:25;31.10;32.50
21801;DHT22;11062;51.164;16.924;2022-11-13T22:53:56;31.10;32.40
21801;DHT22;11062;51.164;16.924;2022-11-13T22:56:24;31.10;32.40
21801;DHT22;11062;51.164;16.924;2022-11-13T22:58:54;31.10;32.20
21801;DHT22;11062;51.164;16.924;2022-11-13T23:01:30;31.10;32.20
21801;DHT22;11062;51.164;16.924;2022-11-13T23:04:00;31.10;32.30
21801;DHT22;11062;51.164;16.924;2022-11-13T23:06:28;31.10;32.20
21801;DHT22;11062;51.164;16.924;2022-11-13T23:08:55;31.00;32.20
21801;DHT22;11062;51.164;16.924;2022-11-13T23:11:24;31.00;32.10
21801;DHT22;11062;51.164;16.924;2022-11-13T23:13:52;31.00;32.10
21801;DHT22;11062;51.164;16.924;2022-11-13T23:16:19;31.00;32.10
21801;DHT22;11062;51.164;16.924;2022-11-13T23:18:47;31.00;32.10
21801;DHT22;11062;51.164;16.924;2022-11-13T23:21:14;30.90;32.10
21801;DHT22;11062;51.164;16.924;2022-11-13T23:23:47;30.90;32.10
21801;DHT22;11062;51.164;16.924;2022-11-13T23:26:14;30.90;32.10
21801;DHT22;11062;51.164;16.924;2022-11-13T23:28:40;30.90;32.00
21801;DHT22;11062;51.164;16.924;2022-11-13T23:31:06;30.90;32.00
21801;DHT22;11062;51.164;16.924;2022-11-13T23:33:33;30.90;32.10
21801;DHT22;11062;51.164;16.924;2022-11-13T23:35:59;30.90;32.10
21801;DHT22;11062;51.164;16.924;2022-11-13T23:38:25;30.90;32.00
21801;DHT22;11062;51.164;16.924;2022-11-13T23:40:56;30.90;31.90
21801;DHT22;11062;51.164;16.924;2022-11-13T23:43:23;30.90;31.90
21801;DHT22;11062;51.164;16.924;2022-11-13T23:45:53;30.80;31.90
21801;DHT22;11062;51.164;16.924;2022-11-13T23:48:19;30.90;32.10
21801;DHT22;11062;51.164;16.924;2022-11-13T23:50:47;30.80;32.10
21801;DHT22;11062;51.164;16.924;2022-11-13T23:53:14;30.70;32.00
21801;DHT22;11062;51.164;16.924;2022-11-13T23:55:40;30.80;32.10
21801;DHT22;11062;51.164;16.924;2022-11-13T23:58:11;30.80;32.10
